Ben Lomond, Arkansas
Current Conditions -  °F | °C
As of 10:08 AM on Friday 19 Dec 2014 (Local Time) from KDEQ Reporting Station
Light Rain Light Rain  
Wind Chill: 40°   Ceiling: 800
Heat Index: 43°   Visibility: 5mi
Dew Point: 42°   Wind: 5mph
Humidity: 97%   Direction: 50°NE
Pressure: 30.24"   Gusts: NA
Location:  33.84°N, 94.12°W
Report Text: KDEQ 191608Z AUTO 05004KT 5SM -RA BR BKN008 BKN021 OVC080 06/06 A3024 RMK AO2 PRESRR P0000 T00610056
Loading
Personal Weather Stations






























Interactive Weather Map New forecast layout! Learn more

10-Day Weather Forecast

Advertisements
Track Severe Weather on mobile